Time;durP1;ratioP1;P1;durP2;ratioP2;P2;SDS_P1;SDS_P2;PMS_P1;PMS_P2;Temp;Humidity;BMP_temperature;BMP_pressure;BME280_temperature;BME280_humidity;BME280_pressure;Samples;Min_cycle;Max_cycle;Signal;HPM_P1;HPM_P2
2021/09/22 00:00:07;;;;;;;4.57;4.17;;;11.30;99.90;;;;;;6245306;28;20228;-75
2021/09/22 00:03:15;;;;;;;5.77;4.47;;;11.30;99.90;;;;;;6224443;28;20199;-74
2021/09/22 00:06:17;;;;;;;4.83;4.17;;;11.30;99.90;;;;;;6236785;28;20194;-75
2021/09/22 00:09:19;;;;;;;6.73;4.47;;;11.30;99.90;;;;;;6245637;28;20311;-75
2021/09/22 00:12:22;;;;;;;5.00;4.17;;;11.30;99.90;;;;;;6244596;28;20201;-75
2021/09/22 00:15:26;;;;;;;4.90;4.17;;;11.40;99.90;;;;;;6245381;28;20747;-75
2021/09/22 00:18:28;;;;;;;5.17;4.23;;;11.40;99.90;;;;;;6244252;28;20190;-75
2021/09/22 00:21:31;;;;;;;6.53;4.60;;;11.40;99.90;;;;;;6245454;28;20267;-75
2021/09/22 00:24:34;;;;;;;5.77;4.00;;;11.40;99.90;;;;;;6244288;28;20488;-75
2021/09/22 00:27:37;;;;;;;5.17;4.10;;;11.40;99.90;;;;;;6245324;28;20570;-75
2021/09/22 00:30:39;;;;;;;4.90;3.83;;;11.40;99.90;;;;;;6253994;28;20320;-75
2021/09/22 00:33:42;;;;;;;4.40;4.00;;;11.30;99.90;;;;;;6231705;28;20214;-75
2021/09/22 00:36:46;;;;;;;5.93;4.00;;;11.30;99.90;;;;;;6236815;28;20197;-75
2021/09/22 00:39:48;;;;;;;4.10;3.70;;;11.30;99.90;;;;;;6249901;28;20197;-75
2021/09/22 00:42:50;;;;;;;5.13;3.83;;;11.30;99.90;;;;;;6249890;28;20304;-75
2021/09/22 00:45:52;;;;;;;4.30;3.90;;;11.30;99.90;;;;;;6248886;28;20292;-75
2021/09/22 00:48:55;;;;;;;5.30;4.67;;;11.30;99.90;;;;;;6249791;28;20186;-75
2021/09/22 00:52:00;;;;;;;6.73;4.37;;;11.20;99.90;;;;;;6232792;28;20733;-75
2021/09/22 00:55:04;;;;;;;5.33;4.83;;;11.30;99.90;;;;;;6231761;28;20204;-75
2021/09/22 00:58:09;;;;;;;6.47;4.37;;;11.40;99.90;;;;;;6248341;28;20204;-75
2021/09/22 01:01:12;;;;;;;6.03;4.20;;;11.40;99.90;;;;;;6239067;28;20310;-75
2021/09/22 01:04:14;;;;;;;5.07;4.20;;;11.40;99.90;;;;;;6248103;28;20227;-75
2021/09/22 01:07:17;;;;;;;5.30;4.80;;;11.40;99.90;;;;;;6248115;28;20197;-75
2021/09/22 01:10:20;;;;;;;6.77;4.57;;;11.40;99.90;;;;;;6231334;28;20196;-75
2021/09/22 01:13:24;;;;;;;4.93;4.37;;;11.40;99.90;;;;;;6249642;28;20239;-75
2021/09/22 01:16:26;;;;;;;7.40;4.10;;;11.30;99.90;;;;;;6247710;28;20652;-75
2021/09/22 01:19:29;;;;;;;5.10;4.30;;;11.30;99.90;;;;;;6223302;28;20211;-75
2021/09/22 01:22:31;;;;;;;4.50;4.00;;;11.30;99.90;;;;;;6243850;28;20286;-75
2021/09/22 01:25:40;;;;;;;4.97;4.30;;;11.30;99.90;;;;;;6246850;28;20227;-75
2021/09/22 01:28:45;;;;;;;4.53;4.03;;;11.30;99.90;;;;;;6248872;28;20192;-75
2021/09/22 01:31:50;;;;;;;5.23;4.10;;;11.30;99.90;;;;;;6235691;28;20201;-75
2021/09/22 01:34:53;;;;;;;6.47;4.83;;;11.30;99.90;;;;;;6231351;28;20240;-75
2021/09/22 01:38:06;;;;;;;5.93;4.23;;;11.30;99.90;;;;;;6247344;28;20306;-75
2021/09/22 01:41:22;;;;;;;6.63;4.50;;;11.30;99.90;;;;;;6247418;28;20203;-75
2021/09/22 01:44:35;;;;;;;5.50;4.43;;;11.30;99.90;;;;;;6247487;28;20307;-75
2021/09/22 01:48:06;;;;;;;4.53;4.13;;;11.30;99.90;;;;;;6246947;28;20707;-75
2021/09/22 01:51:11;;;;;;;4.73;4.23;;;11.20;99.90;;;;;;6247149;28;20284;-75
2021/09/22 01:54:30;;;;;;;7.40;4.77;;;11.20;99.90;;;;;;6230749;28;20203;-75
2021/09/22 01:57:33;;;;;;;5.03;4.57;;;11.20;99.90;;;;;;6247220;28;20699;-75
2021/09/22 02:00:37;;;;;;;5.30;4.17;;;11.10;99.90;;;;;;6239564;28;20232;-75
2021/09/22 02:03:43;;;;;;;4.30;3.90;;;11.10;99.90;;;;;;6228019;28;20316;-75
2021/09/22 02:06:54;;;;;;;6.67;4.90;;;11.10;99.90;;;;;;6238703;28;20287;-74
2021/09/22 02:09:56;;;;;;;4.87;4.20;;;11.10;99.90;;;;;;6230154;28;20196;-75
2021/09/22 02:12:58;;;;;;;4.77;4.37;;;11.10;99.90;;;;;;6246582;28;20192;-75
2021/09/22 02:16:01;;;;;;;5.40;4.80;;;11.10;99.90;;;;;;6229807;28;20612;-75
2021/09/22 02:19:29;;;;;;;9.20;5.27;;;11.00;99.90;;;;;;6246381;28;20660;-75
2021/09/22 02:22:51;;;;;;;6.50;4.77;;;11.10;99.90;;;;;;6236176;28;20738;-74
2021/09/22 02:25:54;;;;;;;7.17;4.80;;;11.10;99.90;;;;;;6246397;28;20556;-75
2021/09/22 02:28:56;;;;;;;6.73;5.03;;;11.10;99.90;;;;;;6246409;28;20225;-75
2021/09/22 02:31:59;;;;;;;5.07;4.57;;;11.10;99.90;;;;;;6222159;28;20584;-75
2021/09/22 02:35:03;;;;;;;5.53;4.50;;;11.10;99.90;;;;;;6221629;28;20203;-75
2021/09/22 02:38:14;;;;;;;6.33;5.03;;;11.10;99.90;;;;;;6240502;28;20558;-75
2021/09/22 02:41:19;;;;;;;5.13;4.63;;;11.10;99.90;;;;;;6229555;28;20537;-75
2021/09/22 02:44:21;;;;;;;5.83;5.13;;;11.00;99.90;;;;;;6246146;28;20757;-75
2021/09/22 02:47:25;;;;;;;5.37;4.87;;;11.00;99.90;;;;;;6245710;28;20204;-75
2021/09/22 02:50:29;;;;;;;5.87;5.27;;;11.00;99.90;;;;;;6229317;28;20204;-75
2021/09/22 02:53:33;;;;;;;6.80;5.93;;;11.00;99.90;;;;;;6245928;28;20207;-75
2021/09/22 02:56:35;;;;;;;7.00;6.23;;;11.10;99.90;;;;;;6245364;28;20197;-75
2021/09/22 02:59:38;;;;;;;8.43;6.13;;;11.20;99.90;;;;;;6214766;28;20255;-74
2021/09/22 03:02:40;;;;;;;7.73;6.47;;;11.30;99.90;;;;;;6223589;28;20302;-75
2021/09/22 03:05:43;;;;;;;6.67;6.00;;;11.40;99.90;;;;;;6238949;28;20227;-75
2021/09/22 03:08:45;;;;;;;6.53;5.93;;;11.40;99.90;;;;;;6220712;28;20197;-75
2021/09/22 03:11:47;;;;;;;6.73;5.47;;;11.40;99.90;;;;;;6223710;28;20193;-75
2021/09/22 03:14:51;;;;;;;10.10;6.20;;;11.50;99.90;;;;;;6228223;28;20235;-75
2021/09/22 03:17:54;;;;;;;9.63;5.37;;;11.50;99.90;;;;;;6228845;28;20205;-75
2021/09/22 03:20:56;;;;;;;7.47;6.73;;;11.50;99.90;;;;;;6245305;28;20264;-75
2021/09/22 03:23:58;;;;;;;8.17;6.27;;;11.50;99.90;;;;;;6245240;28;20597;-75
2021/09/22 03:27:00;;;;;;;8.37;6.30;;;11.60;99.90;;;;;;6228540;28;20560;-75
2021/09/22 03:30:05;;;;;;;6.63;5.93;;;11.60;99.90;;;;;;6233585;28;20197;-75
2021/09/22 03:33:10;;;;;;;5.90;5.30;;;11.60;99.90;;;;;;6228750;28;20206;-75
2021/09/22 03:36:13;;;;;;;11.20;6.37;;;11.60;99.90;;;;;;6234266;28;20275;-75
2021/09/22 03:39:16;;;;;;;6.67;6.03;;;11.60;99.90;;;;;;6228506;28;20193;-74
2021/09/22 03:42:20;;;;;;;6.57;5.27;;;11.60;99.90;;;;;;6244753;28;20291;-75
2021/09/22 03:45:23;;;;;;;6.33;5.53;;;11.70;99.90;;;;;;6244390;28;20262;-75
2021/09/22 03:48:26;;;;;;;7.20;6.27;;;11.70;99.90;;;;;;6245062;28;20192;-75
2021/09/22 03:51:28;;;;;;;7.00;6.30;;;11.60;99.90;;;;;;6228303;28;20527;-75
2021/09/22 03:54:30;;;;;;;7.00;6.30;;;11.60;99.90;;;;;;6211850;28;20210;-75
2021/09/22 03:57:33;;;;;;;10.33;5.87;;;11.60;99.90;;;;;;6244708;28;20420;-75
2021/09/22 04:00:35;;;;;;;6.77;5.30;;;11.60;99.90;;;;;;6212414;28;20245;-75
2021/09/22 04:03:37;;;;;;;8.20;6.20;;;11.60;99.90;;;;;;6236422;28;20222;-75
2021/09/22 04:06:40;;;;;;;8.10;6.30;;;11.60;99.90;;;;;;6236617;28;20344;-75
2021/09/22 04:09:43;;;;;;;8.10;7.30;;;11.60;99.90;;;;;;6232890;28;20190;-76
2021/09/22 04:12:45;;;;;;;8.30;7.50;;;11.60;99.90;;;;;;6250683;28;20563;-75
2021/09/22 04:15:47;;;;;;;10.20;7.77;;;11.50;99.90;;;;;;6249281;28;20189;-76
2021/09/22 04:18:50;;;;;;;8.40;7.50;;;11.50;99.90;;;;;;6249352;28;20196;-76
2021/09/22 04:21:53;;;;;;;8.63;7.73;;;11.40;99.90;;;;;;6232780;28;20208;-76
2021/09/22 04:24:55;;;;;;;9.53;6.87;;;11.40;99.90;;;;;;6249366;28;20213;-76
2021/09/22 04:27:57;;;;;;;9.00;7.93;;;11.30;99.90;;;;;;6248995;28;20197;-75
2021/09/22 04:31:18;;;;;;;7.47;6.63;;;11.20;99.90;;;;;;6250686;28;20236;-76
2021/09/22 04:34:39;;;;;;;8.73;7.83;;;11.10;99.90;;;;;;6249263;28;20194;-76
2021/09/22 04:38:01;;;;;;;9.13;8.13;;;11.10;99.90;;;;;;6250467;28;20199;-76
2021/09/22 04:41:22;;;;;;;7.93;7.10;;;11.10;99.90;;;;;;6249377;28;20232;-76
2021/09/22 04:44:43;;;;;;;10.50;8.50;;;11.00;99.90;;;;;;6249731;28;20222;-76
2021/09/22 04:48:06;;;;;;;11.07;9.10;;;11.00;99.90;;;;;;6248836;28;20200;-76
2021/09/22 04:51:27;;;;;;;11.07;8.47;;;11.00;99.90;;;;;;6250268;28;20200;-76
2021/09/22 04:54:47;;;;;;;8.70;7.77;;;11.00;99.90;;;;;;6249993;28;20193;-75
2021/09/22 04:58:08;;;;;;;10.03;8.10;;;11.00;99.90;;;;;;6249621;28;20196;-76
2021/09/22 05:01:30;;;;;;;10.40;9.30;;;11.00;99.90;;;;;;6249357;28;20232;-76
2021/09/22 05:04:50;;;;;;;10.43;9.00;;;11.10;99.90;;;;;;6249503;28;20213;-75
2021/09/22 05:08:11;;;;;;;8.53;7.63;;;11.10;99.90;;;;;;6249776;28;20197;-76
2021/09/22 05:11:32;;;;;;;8.87;7.97;;;11.10;99.90;;;;;;6249353;28;20664;-76
2021/09/22 05:14:53;;;;;;;9.60;8.57;;;11.10;99.90;;;;;;6248258;28;20201;-76
2021/09/22 05:18:14;;;;;;;10.27;8.50;;;11.10;99.90;;;;;;6249648;28;20668;-76
2021/09/22 05:21:36;;;;;;;9.07;7.83;;;11.10;99.90;;;;;;6249126;28;20182;-76
2021/09/22 05:24:57;;;;;;;10.10;8.20;;;11.00;99.90;;;;;;6248793;28;20200;-75
2021/09/22 05:28:17;;;;;;;10.47;9.17;;;11.00;99.90;;;;;;6249352;28;20179;-75
2021/09/22 05:31:38;;;;;;;10.23;9.03;;;11.00;99.90;;;;;;6249238;28;20574;-74
2021/09/22 05:35:05;;;;;;;11.73;8.93;;;11.00;99.90;;;;;;6224174;28;20190;-75
2021/09/22 05:38:26;;;;;;;9.83;8.83;;;11.00;99.90;;;;;;6249078;28;20177;-75
2021/09/22 05:42:07;;;;;;;9.97;8.90;;;10.90;99.90;;;;;;6196682;28;20229;-75
2021/09/22 05:45:28;;;;;;;11.70;9.73;;;10.90;99.90;;;;;;6197746;28;20203;-75
2021/09/22 05:48:49;;;;;;;10.93;8.63;;;10.90;99.90;;;;;;6248708;28;20534;-75
2021/09/22 05:52:09;;;;;;;11.17;9.00;;;10.90;99.90;;;;;;6248197;28;20181;-75
2021/09/22 05:55:30;;;;;;;10.87;9.77;;;10.80;99.90;;;;;;6223884;28;20260;-75
2021/09/22 05:58:52;;;;;;;11.73;10.53;;;10.70;99.90;;;;;;6227265;28;20197;-75
2021/09/22 06:02:12;;;;;;;12.90;11.50;;;10.70;99.90;;;;;;6248028;28;20323;-75
2021/09/22 06:05:33;;;;;;;14.07;10.03;;;10.60;99.90;;;;;;6232656;28;20703;-75
2021/09/22 06:09:11;;;;;;;12.20;10.57;;;10.50;99.90;;;;;;6150040;28;20198;-75
2021/09/22 06:12:40;;;;;;;12.77;10.60;;;10.50;99.90;;;;;;6235745;28;20196;-75
2021/09/22 06:15:42;;;;;;;11.83;10.17;;;10.40;99.90;;;;;;6230076;28;20546;-75
2021/09/22 06:18:46;;;;;;;13.53;11.03;;;10.40;99.90;;;;;;6227616;28;20689;-75
2021/09/22 06:21:50;;;;;;;12.60;10.80;;;10.30;99.90;;;;;;6237949;28;20192;-76
2021/09/22 06:25:14;;;;;;;12.20;10.40;;;10.40;99.90;;;;;;6247205;28;20243;-75
2021/09/22 06:28:16;;;;;;;11.77;10.50;;;10.30;99.90;;;;;;6247064;28;20188;-75
2021/09/22 06:31:19;;;;;;;12.37;10.47;;;10.40;99.90;;;;;;6243320;28;20279;-75
2021/09/22 06:34:35;;;;;;;12.30;10.97;;;10.30;99.90;;;;;;6246024;28;20193;-75
2021/09/22 06:37:38;;;;;;;12.50;11.17;;;10.30;99.90;;;;;;6245857;28;20197;-75
2021/09/22 06:40:47;;;;;;;13.63;10.10;;;10.40;99.90;;;;;;6230691;28;20218;-75
2021/09/22 06:43:49;;;;;;;12.77;11.37;;;10.40;99.90;;;;;;6229061;28;20220;-75
2021/09/22 06:46:52;;;;;;;12.03;10.73;;;10.40;99.90;;;;;;6247365;28;20282;-74
2021/09/22 06:49:55;;;;;;;14.77;12.20;;;10.40;99.90;;;;;;6246896;28;20196;-74
2021/09/22 06:52:57;;;;;;;13.07;11.37;;;10.40;99.90;;;;;;6229243;28;20184;-75
2021/09/22 06:56:00;;;;;;;14.47;12.50;;;10.40;99.90;;;;;;6237512;28;20211;-75
2021/09/22 06:59:02;;;;;;;13.27;11.73;;;10.40;99.90;;;;;;6232176;28;20206;-74
2021/09/22 07:02:04;;;;;;;13.60;12.13;;;10.40;99.90;;;;;;6261903;28;20231;-75
2021/09/22 07:05:09;;;;;;;15.23;11.33;;;10.40;99.90;;;;;;6246268;28;20207;-75
2021/09/22 07:08:12;;;;;;;16.13;12.30;;;10.40;99.90;;;;;;6245009;28;20200;-74
2021/09/22 07:11:14;;;;;;;12.93;11.53;;;10.40;99.90;;;;;;6228978;28;20238;-75
2021/09/22 07:14:16;;;;;;;13.77;12.20;;;10.30;99.90;;;;;;6228186;28;20227;-75
2021/09/22 07:17:18;;;;;;;16.70;12.73;;;10.30;99.90;;;;;;6228656;28;20210;-75
2021/09/22 07:20:21;;;;;;;14.10;12.57;;;10.40;99.90;;;;;;6245858;28;20192;-75
2021/09/22 07:23:23;;;;;;;16.10;12.33;;;10.40;99.90;;;;;;6246093;28;20199;-75
2021/09/22 07:26:25;;;;;;;13.63;12.23;;;10.40;99.90;;;;;;6245933;28;20195;-75
2021/09/22 07:29:27;;;;;;;18.30;12.23;;;10.50;99.90;;;;;;6228346;28;20180;-75
2021/09/22 07:32:30;;;;;;;13.90;11.77;;;10.50;99.90;;;;;;6228202;28;20191;-76
2021/09/22 07:35:32;;;;;;;15.80;12.27;;;10.40;99.90;;;;;;6244421;28;20196;-75
2021/09/22 07:38:34;;;;;;;12.57;10.93;;;10.40;99.90;;;;;;6228348;28;20247;-75
2021/09/22 07:41:37;;;;;;;13.07;11.77;;;10.40;99.90;;;;;;6244841;28;20730;-76
2021/09/22 07:44:42;;;;;;;14.87;12.27;;;10.50;99.90;;;;;;6245607;28;20212;-75
2021/09/22 07:47:44;;;;;;;13.77;11.77;;;10.40;99.90;;;;;;6245556;28;20283;-76
2021/09/22 07:50:47;;;;;;;12.73;10.70;;;10.50;99.90;;;;;;6227669;28;20196;-75
2021/09/22 07:53:49;;;;;;;13.77;11.07;;;10.50;99.90;;;;;;6227643;28;20200;-76
2021/09/22 07:56:52;;;;;;;13.40;11.97;;;10.50;99.90;;;;;;6245426;28;20278;-75
2021/09/22 07:59:55;;;;;;;13.03;11.03;;;10.50;99.90;;;;;;6231994;28;20215;-75
2021/09/22 08:03:00;;;;;;;12.80;10.83;;;10.50;99.90;;;;;;6227689;28;20205;-76
2021/09/22 08:06:03;;;;;;;12.93;11.37;;;10.50;99.90;;;;;;6245221;28;20208;-76
2021/09/22 08:09:05;;;;;;;12.13;10.83;;;10.50;99.90;;;;;;6244189;28;20285;-76
2021/09/22 08:12:08;;;;;;;12.03;10.77;;;10.50;99.90;;;;;;6227526;28;20266;-75
2021/09/22 08:15:11;;;;;;;13.33;11.93;;;10.50;99.90;;;;;;6245134;28;20188;-75
2021/09/22 08:18:14;;;;;;;13.40;10.87;;;10.60;99.90;;;;;;6245150;28;20204;-76
2021/09/22 08:21:16;;;;;;;12.47;11.17;;;10.60;99.90;;;;;;6228056;28;20199;-76
2021/09/22 08:24:18;;;;;;;11.77;10.03;;;10.50;99.90;;;;;;6245148;28;20211;-76
2021/09/22 08:27:21;;;;;;;11.97;10.37;;;10.60;99.90;;;;;;6243807;28;20267;-75
2021/09/22 08:30:23;;;;;;;10.03;8.77;;;10.60;99.90;;;;;;6227516;28;20184;-75
2021/09/22 08:33:26;;;;;;;13.37;9.10;;;10.60;99.90;;;;;;6245086;28;20378;-76
2021/09/22 08:36:28;;;;;;;11.17;8.97;;;10.60;99.90;;;;;;6244012;28;20538;-75
2021/09/22 08:39:32;;;;;;;11.00;9.07;;;10.60;99.90;;;;;;6245051;28;20191;-76
2021/09/22 08:42:35;;;;;;;8.07;7.27;;;10.70;99.90;;;;;;6243611;28;20279;-75
2021/09/22 08:45:38;;;;;;;8.57;7.67;;;10.70;99.90;;;;;;6244911;28;20204;-76
2021/09/22 08:48:40;;;;;;;10.23;7.17;;;10.80;99.90;;;;;;6226915;28;20199;-75
2021/09/22 08:51:44;;;;;;;8.43;7.63;;;10.70;99.90;;;;;;6243784;28;20310;-75
2021/09/22 08:54:46;;;;;;;8.83;7.93;;;10.70;99.90;;;;;;6248664;28;20556;-75
2021/09/22 08:57:49;;;;;;;8.27;7.33;;;10.70;99.90;;;;;;6248142;28;20579;-75
2021/09/22 09:00:51;;;;;;;8.50;6.80;;;10.70;99.90;;;;;;6249304;28;20718;-75
2021/09/22 09:03:54;;;;;;;8.43;7.13;;;10.70;99.90;;;;;;6249327;28;20517;-75
2021/09/22 09:06:57;;;;;;;8.10;7.10;;;10.80;99.90;;;;;;6248301;28;20271;-75
2021/09/22 09:10:09;;;;;;;10.73;7.47;;;10.90;99.90;;;;;;6249296;28;20184;-76
2021/09/22 09:13:12;;;;;;;9.80;8.63;;;10.90;99.90;;;;;;6248088;28;20189;-76
2021/09/22 09:16:18;;;;;;;10.70;8.27;;;11.10;99.90;;;;;;6247760;28;20737;-76
2021/09/22 09:19:23;;;;;;;8.93;8.03;;;11.30;99.90;;;;;;6248893;28;20199;-76
2021/09/22 09:22:25;;;;;;;13.00;8.50;;;11.50;99.90;;;;;;6249305;28;20399;-76
2021/09/22 09:25:30;;;;;;;11.47;9.60;;;11.60;99.90;;;;;;6231132;28;20212;-76
2021/09/22 09:28:35;;;;;;;11.10;8.30;;;11.80;99.90;;;;;;6248569;28;20553;-75
2021/09/22 09:31:37;;;;;;;10.33;9.23;;;12.10;99.90;;;;;;6220715;28;20662;-75
2021/09/22 09:34:57;;;;;;;10.67;8.17;;;12.60;99.90;;;;;;6222674;28;20305;-76
2021/09/22 09:38:00;;;;;;;11.57;9.43;;;13.10;99.90;;;;;;6237089;28;20340;-75
2021/09/22 09:41:02;;;;;;;13.33;9.33;;;13.70;99.90;;;;;;6247150;28;20239;-75
2021/09/22 09:44:10;;;;;;;9.93;8.93;;;14.00;99.90;;;;;;6230743;28;20222;-75
2021/09/22 09:47:12;;;;;;;10.13;7.80;;;14.20;99.90;;;;;;6248199;28;20184;-74
2021/09/22 09:50:21;;;;;;;10.13;8.00;;;14.40;99.90;;;;;;6247052;28;20187;-75
2021/09/22 09:53:29;;;;;;;7.70;6.80;;;14.50;99.90;;;;;;6230473;28;20304;-75
2021/09/22 09:56:33;;;;;;;8.00;6.97;;;14.70;99.90;;;;;;6247991;28;20575;-75
2021/09/22 09:59:47;;;;;;;8.77;7.10;;;14.70;99.90;;;;;;6231723;28;20306;-75
2021/09/22 10:02:51;;;;;;;7.80;6.90;;;14.80;99.90;;;;;;6247715;28;20731;-75
2021/09/22 10:05:54;;;;;;;8.73;7.37;;;15.10;99.90;;;;;;6246961;28;20215;-75
2021/09/22 10:08:57;;;;;;;8.47;7.20;;;15.20;99.90;;;;;;6247654;28;20192;-75
2021/09/22 10:11:59;;;;;;;9.60;8.10;;;15.30;99.90;;;;;;6230059;28;20199;-75
2021/09/22 10:15:02;;;;;;;8.80;7.70;;;15.40;99.90;;;;;;6246349;28;20570;-75
2021/09/22 10:18:06;;;;;;;9.13;7.50;;;15.50;99.90;;;;;;6229249;28;20202;-75
2021/09/22 10:21:08;;;;;;;9.00;6.90;;;15.50;99.90;;;;;;6229627;28;20196;-75
2021/09/22 10:24:12;;;;;;;7.47;6.20;;;15.50;99.90;;;;;;6247199;28;20196;-75
2021/09/22 10:27:15;;;;;;;8.30;6.90;;;15.60;99.90;;;;;;6247203;28;20204;-75
2021/09/22 10:30:35;;;;;;;8.80;7.13;;;15.80;99.90;;;;;;6247240;28;20200;-75
2021/09/22 10:33:39;;;;;;;7.17;6.40;;;15.90;99.90;;;;;;6226284;28;20670;-75
2021/09/22 10:36:43;;;;;;;8.27;6.80;;;16.20;99.90;;;;;;6239027;28;20219;-76
2021/09/22 10:39:45;;;;;;;9.20;6.00;;;16.80;99.90;;;;;;6229069;28;20192;-75
2021/09/22 10:42:48;;;;;;;8.27;6.20;;;17.00;99.90;;;;;;6246884;28;20191;-75
2021/09/22 10:46:16;;;;;;;8.63;6.23;;;17.40;99.90;;;;;;6246925;28;20238;-76
2021/09/22 10:49:35;;;;;;;6.43;5.57;;;17.30;99.90;;;;;;6245750;28;20659;-76
2021/09/22 10:52:41;;;;;;;7.27;5.30;;;17.20;99.90;;;;;;6246531;28;20690;-76
2021/09/22 10:56:10;;;;;;;6.20;5.40;;;17.60;99.90;;;;;;6246439;28;20200;-76
2021/09/22 10:59:24;;;;;;;8.30;6.13;;;18.00;99.90;;;;;;6245250;28;20589;-76
2021/09/22 11:02:42;;;;;;;6.13;5.53;;;17.90;99.90;;;;;;6246251;28;20698;-76
2021/09/22 11:05:45;;;;;;;5.90;4.60;;;17.90;99.90;;;;;;6245247;28;20195;-76
2021/09/22 11:09:03;;;;;;;5.57;5.07;;;17.80;99.90;;;;;;6245064;28;20273;-76
2021/09/22 11:12:07;;;;;;;5.73;4.50;;;17.70;99.90;;;;;;6245147;28;20616;-76
2021/09/22 11:15:09;;;;;;;6.00;5.13;;;17.80;99.90;;;;;;6244684;28;20317;-76
2021/09/22 11:18:14;;;;;;;5.27;4.77;;;18.00;99.90;;;;;;6220248;28;20287;-76
2021/09/22 11:21:22;;;;;;;5.80;4.73;;;18.00;99.90;;;;;;6236105;28;20698;-76
2021/09/22 11:24:28;;;;;;;5.40;4.90;;;18.20;99.90;;;;;;6245886;28;20577;-76
2021/09/22 11:27:31;;;;;;;8.97;5.20;;;18.40;99.90;;;;;;6244854;28;20283;-76
2021/09/22 11:30:35;;;;;;;7.97;5.57;;;18.50;99.60;;;;;;6245786;28;20184;-76
2021/09/22 11:33:37;;;;;;;5.97;5.00;;;18.60;97.90;;;;;;6228431;28;20743;-76
2021/09/22 11:36:39;;;;;;;6.13;4.87;;;18.70;99.00;;;;;;6244600;28;20200;-76
2021/09/22 11:39:43;;;;;;;6.50;4.80;;;18.80;98.50;;;;;;6228123;28;20273;-76
2021/09/22 11:43:04;;;;;;;5.47;4.87;;;18.70;97.60;;;;;;6244698;28;20230;-76
2021/09/22 11:46:07;;;;;;;5.77;4.90;;;18.50;97.90;;;;;;6245510;28;20302;-75
2021/09/22 11:49:09;;;;;;;7.87;5.00;;;18.30;98.60;;;;;;6244236;28;20196;-75
2021/09/22 11:52:20;;;;;;;6.40;5.40;;;18.40;98.80;;;;;;6245443;28;20201;-75
2021/09/22 11:55:25;;;;;;;7.77;5.40;;;18.30;97.70;;;;;;6211380;28;20203;-76
2021/09/22 11:58:29;;;;;;;7.43;5.27;;;17.80;97.90;;;;;;6219963;28;20209;-75
2021/09/22 12:01:32;;;;;;;7.43;5.57;;;17.30;99.10;;;;;;6225719;28;20595;-75
2021/09/22 12:04:36;;;;;;;11.20;5.83;;;16.90;99.70;;;;;;6243963;28;20208;-75
2021/09/22 12:07:38;;;;;;;9.90;5.87;;;16.50;99.90;;;;;;6227812;28;20270;-76
2021/09/22 12:10:44;;;;;;;6.90;5.43;;;16.30;99.90;;;;;;6245329;28;20206;-76
2021/09/22 12:13:53;;;;;;;13.17;6.40;;;16.20;99.90;;;;;;6245216;28;20188;-75
2021/09/22 12:17:09;;;;;;;6.83;5.53;;;16.10;99.90;;;;;;6245138;28;20200;-76
2021/09/22 12:20:14;;;;;;;9.00;5.90;;;16.00;99.90;;;;;;6245065;28;20250;-75
2021/09/22 12:23:26;;;;;;;5.87;5.27;;;15.80;99.90;;;;;;6245264;28;20584;-75
2021/09/22 12:26:28;;;;;;;9.47;5.40;;;15.80;99.90;;;;;;6245285;28;20671;-75
2021/09/22 12:29:30;;;;;;;5.50;5.00;;;15.80;99.90;;;;;;6231298;28;20287;-75
2021/09/22 12:32:48;;;;;;;7.30;5.43;;;15.90;99.90;;;;;;6248543;28;20191;-76
2021/09/22 12:35:50;;;;;;;7.40;4.90;;;16.00;99.90;;;;;;6248924;28;20199;-76
2021/09/22 12:38:54;;;;;;;7.10;5.00;;;16.10;99.90;;;;;;6232267;28;20212;-75
2021/09/22 12:42:07;;;;;;;6.10;5.13;;;16.30;99.90;;;;;;6250052;28;20189;-76
2021/09/22 12:45:24;;;;;;;6.93;5.77;;;16.20;99.90;;;;;;6249534;28;20301;-75
2021/09/22 12:48:27;;;;;;;7.03;5.50;;;16.40;99.90;;;;;;6248625;28;20188;-75
2021/09/22 12:51:32;;;;;;;8.87;6.50;;;16.60;99.90;;;;;;6248183;28;20188;-75
2021/09/22 12:54:41;;;;;;;8.67;6.40;;;16.20;99.90;;;;;;6249357;28;20218;-75
2021/09/22 12:57:45;;;;;;;8.20;6.10;;;15.80;99.90;;;;;;6231907;28;20274;-75
2021/09/22 13:00:56;;;;;;;8.93;6.20;;;15.60;99.90;;;;;;6256858;28;20286;-75
2021/09/22 13:03:59;;;;;;;7.17;6.23;;;15.50;99.90;;;;;;6231646;28;20200;-75
2021/09/22 13:07:03;;;;;;;7.97;5.97;;;15.30;99.90;;;;;;6247671;28;20211;-75
2021/09/22 13:10:06;;;;;;;6.73;5.87;;;15.20;99.90;;;;;;6249246;28;20669;-76
2021/09/22 13:13:15;;;;;;;9.97;6.00;;;15.00;99.90;;;;;;6248212;28;20196;-76
2021/09/22 13:16:26;;;;;;;9.33;5.90;;;14.90;99.90;;;;;;6247631;28;20207;-76
2021/09/22 13:19:31;;;;;;;7.07;5.90;;;14.70;99.90;;;;;;6223274;28;20212;-76
2021/09/22 13:22:33;;;;;;;7.90;5.63;;;14.40;99.90;;;;;;6230895;28;20223;-75
2021/09/22 13:25:35;;;;;;;9.50;5.80;;;14.30;99.90;;;;;;6247672;28;20617;-76
2021/09/22 13:28:38;;;;;;;8.83;5.67;;;14.20;99.90;;;;;;6248619;28;20504;-77
2021/09/22 13:31:43;;;;;;;8.03;5.73;;;14.20;99.90;;;;;;6222649;28;20243;-77
2021/09/22 13:34:45;;;;;;;6.27;5.27;;;14.20;99.90;;;;;;6229298;28;20610;-76
2021/09/22 13:37:47;;;;;;;6.10;5.50;;;14.20;99.90;;;;;;6247256;28;21410;-77
2021/09/22 13:40:50;;;;;;;9.60;6.33;;;14.10;99.90;;;;;;6229794;28;20299;-76
2021/09/22 13:43:52;;;;;;;7.97;5.93;;;14.00;99.90;;;;;;6247123;28;20207;-76
2021/09/22 13:46:55;;;;;;;8.00;6.40;;;13.90;99.90;;;;;;6247082;28;20208;-77
2021/09/22 13:49:57;;;;;;;8.03;7.00;;;13.80;99.90;;;;;;6247177;28;20678;-76
2021/09/22 13:52:59;;;;;;;8.33;6.23;;;13.70;99.90;;;;;;6246756;28;20704;-77
2021/09/22 13:56:02;;;;;;;7.50;6.27;;;13.50;99.90;;;;;;6246864;28;20203;-76
2021/09/22 13:59:07;;;;;;;8.80;6.57;;;13.40;99.90;;;;;;6246864;28;20207;-76
2021/09/22 14:02:09;;;;;;;7.10;5.50;;;13.40;99.90;;;;;;6246532;28;20310;-77
2021/09/22 14:05:12;;;;;;;8.40;6.83;;;13.30;99.90;;;;;;6230014;28;20219;-76
2021/09/22 14:08:15;;;;;;;11.40;7.13;;;13.20;99.90;;;;;;6247864;28;20246;-76
2021/09/22 14:11:18;;;;;;;8.07;7.13;;;13.20;99.90;;;;;;6247901;28;20219;-76
2021/09/22 14:14:20;;;;;;;9.27;6.87;;;13.10;99.90;;;;;;6246251;28;20201;-76
2021/09/22 14:17:22;;;;;;;7.83;6.63;;;13.00;99.90;;;;;;6221916;28;20230;-76
2021/09/22 14:20:26;;;;;;;10.07;7.00;;;13.10;99.90;;;;;;6235461;28;20195;-76
2021/09/22 14:23:28;;;;;;;8.63;7.03;;;13.00;99.90;;;;;;6247335;28;20492;-76
2021/09/22 14:26:31;;;;;;;9.73;7.63;;;13.10;99.90;;;;;;6246268;28;20211;-76
2021/09/22 14:29:33;;;;;;;7.50;6.67;;;13.10;99.90;;;;;;6247331;28;20190;-76
2021/09/22 14:32:35;;;;;;;8.97;7.53;;;13.10;99.90;;;;;;6247687;28;20186;-76
2021/09/22 14:35:40;;;;;;;12.03;7.87;;;13.00;99.90;;;;;;6247311;28;20330;-77
2021/09/22 14:38:42;;;;;;;9.57;7.83;;;12.90;99.90;;;;;;6247637;28;20681;-76
2021/09/22 14:41:44;;;;;;;11.97;7.60;;;12.90;99.90;;;;;;6247142;28;20198;-76
2021/09/22 14:44:47;;;;;;;8.37;7.13;;;12.90;99.90;;;;;;6246907;28;20279;-76
2021/09/22 14:47:49;;;;;;;11.17;7.80;;;12.90;99.90;;;;;;6246904;28;20666;-76
2021/09/22 14:50:51;;;;;;;8.13;6.93;;;12.90;99.90;;;;;;6244985;28;20199;-76
2021/09/22 14:53:54;;;;;;;11.10;8.27;;;12.90;99.90;;;;;;6245563;28;20202;-76
2021/09/22 14:56:57;;;;;;;8.57;7.30;;;12.90;99.90;;;;;;6212892;28;20210;-76
2021/09/22 14:59:59;;;;;;;10.03;6.60;;;13.00;99.90;;;;;;6249316;28;20238;-76
2021/09/22 15:03:01;;;;;;;8.40;6.93;;;13.10;99.90;;;;;;6231034;28;20206;-77
2021/09/22 15:06:04;;;;;;;11.80;7.93;;;13.20;99.90;;;;;;6246297;28;20226;-76
2021/09/22 15:09:06;;;;;;;8.33;7.03;;;13.20;99.90;;;;;;6228605;28;20218;-76
2021/09/22 15:12:09;;;;;;;9.13;7.20;;;13.30;99.90;;;;;;6246483;28;20199;-76
2021/09/22 15:15:27;;;;;;;8.57;7.67;;;13.40;99.90;;;;;;6246106;28;20201;-76
2021/09/22 15:18:29;;;;;;;11.17;6.50;;;13.40;99.90;;;;;;6228562;28;20296;-77
2021/09/22 15:21:31;;;;;;;10.53;7.10;;;13.40;99.90;;;;;;6245930;28;20666;-77
2021/09/22 15:24:35;;;;;;;8.37;6.80;;;13.40;99.90;;;;;;6246216;28;20269;-76
2021/09/22 15:27:39;;;;;;;8.83;7.70;;;13.40;99.90;;;;;;6227964;28;20325;-77
2021/09/22 15:30:43;;;;;;;10.67;7.57;;;13.40;99.90;;;;;;6246568;28;20286;-77
2021/09/22 15:33:46;;;;;;;9.67;7.23;;;13.40;99.90;;;;;;6246044;28;20188;-76
2021/09/22 15:36:48;;;;;;;13.10;7.73;;;13.30;99.90;;;;;;6220166;28;20209;-77
2021/09/22 15:39:52;;;;;;;9.90;7.10;;;13.40;99.90;;;;;;6217459;28;20281;-77
2021/09/22 15:42:56;;;;;;;13.50;8.40;;;13.40;99.90;;;;;;6244288;28;20211;-76
2021/09/22 15:45:59;;;;;;;9.03;6.70;;;13.40;99.90;;;;;;6227925;28;20215;-76
2021/09/22 15:49:01;;;;;;;8.93;6.80;;;13.40;99.90;;;;;;6244405;28;20699;-76
2021/09/22 15:52:05;;;;;;;10.77;6.70;;;13.50;99.90;;;;;;6244345;28;20653;-76
2021/09/22 15:55:08;;;;;;;10.13;7.00;;;13.40;99.90;;;;;;6244419;28;20212;-76
2021/09/22 15:58:10;;;;;;;11.03;5.93;;;13.40;99.90;;;;;;6227608;28;20207;-77
2021/09/22 16:01:12;;;;;;;7.17;6.13;;;13.30;99.90;;;;;;6223413;28;20228;-76
2021/09/22 16:04:15;;;;;;;8.53;5.93;;;13.30;99.90;;;;;;6235647;28;20675;-77